Disclaimer

Please do not use the information listed here in-flight or in-navigation, as they are not provided to us by the airports but are provided by volunteers, so they might be outdated.

Search


Regions


Airport information page

Radio informations:
CURITIBA TWR - 118.55 MHz
Ground (GND) - 121.9 MHz
Automatic Terminal Information Service (ATIS) - 127.8 MHz
CURITIBA APP - 119.95 MHz

Airport informations:
Latitude: 25° 31' 42.51" S
Longitude: 049° 10' 32.79" W
Elevation: 2988 feet - 911 meters
Operating hours: 24 hour operations
Operating agency: Civil government, landing fees and diplomatic clearance may be required
Timezone: UTC-3(-2DT)
Fuel: Jet A1, without icing nhibitor.

Runway information:
11/29 - 5905 x 148 feet< - >1800 x 45 meters
15/33 - 7267 x 148 feet< - >2215 x 45 meters

Recent METARs:
SBCT 190700Z 14013KT 9000 OVC008 13/12 Q1018
SBCT 190800Z 14014KT 9000 BKN008 OVC015 13/11 Q1018
SBCT 190800Z 14014KT 9000 BKN008 OVC015 13/11 Q1018

Airport on the map: